sensor_id;sensor_type;location;lat;lon;timestamp;temperature;humidity
8939;DHT22;4504;48.810;9.172;2024-01-11T00:00:40;-2.50;99.90
8939;DHT22;4504;48.810;9.172;2024-01-11T00:03:08;-2.40;99.90
8939;DHT22;4504;48.810;9.172;2024-01-11T00:05:35;-2.50;99.90
8939;DHT22;4504;48.810;9.172;2024-01-11T00:08:03;-2.40;99.90
8939;DHT22;4504;48.810;9.172;2024-01-11T00:10:30;-2.40;99.90
8939;DHT22;4504;48.810;9.172;2024-01-11T00:12:57;-2.40;99.90
8939;DHT22;4504;48.810;9.172;2024-01-11T00:15:24;-2.40;99.90
8939;DHT22;4504;48.810;9.172;2024-01-11T00:17:51;-2.50;99.90
8939;DHT22;4504;48.810;9.172;2024-01-11T00:20:19;-2.50;99.90
8939;DHT22;4504;48.810;9.172;2024-01-11T00:22:46;-2.60;99.90
8939;DHT22;4504;48.810;9.172;2024-01-11T00:25:13;-2.70;99.90
8939;DHT22;4504;48.810;9.172;2024-01-11T00:27:40;-2.80;99.90
8939;DHT22;4504;48.810;9.172;2024-01-11T00:30:08;-3.00;99.90
8939;DHT22;4504;48.810;9.172;2024-01-11T00:32:35;-3.10;99.90
8939;DHT22;4504;48.810;9.172;2024-01-11T00:35:02;-3.10;99.90
8939;DHT22;4504;48.810;9.172;2024-01-11T00:37:31;-2.90;99.90
8939;DHT22;4504;48.810;9.172;2024-01-11T00:39:58;-3.10;99.90
8939;DHT22;4504;48.810;9.172;2024-01-11T00:42:25;-3.00;99.90
8939;DHT22;4504;48.810;9.172;2024-01-11T00:44:52;-2.90;99.90
8939;DHT22;4504;48.810;9.172;2024-01-11T00:47:19;-3.00;99.90
8939;DHT22;4504;48.810;9.172;2024-01-11T00:49:46;-3.00;99.90
8939;DHT22;4504;48.810;9.172;2024-01-11T00:52:13;-2.90;99.90
8939;DHT22;4504;48.810;9.172;2024-01-11T00:54:41;-3.00;99.90
8939;DHT22;4504;48.810;9.172;2024-01-11T00:57:08;-3.00;99.90
8939;DHT22;4504;48.810;9.172;2024-01-11T00:59:35;-3.20;99.90
8939;DHT22;4504;48.810;9.172;2024-01-11T01:02:02;-3.10;99.90
8939;DHT22;4504;48.810;9.172;2024-01-11T01:04:29;-3.10;99.90
8939;DHT22;4504;48.810;9.172;2024-01-11T01:06:57;-3.20;99.90
8939;DHT22;4504;48.810;9.172;2024-01-11T01:09:24;-3.30;99.90
8939;DHT22;4504;48.810;9.172;2024-01-11T01:11:52;-3.30;99.90
8939;DHT22;4504;48.810;9.172;2024-01-11T01:14:19;-3.10;99.90
8939;DHT22;4504;48.810;9.172;2024-01-11T01:16:46;-3.20;99.90
8939;DHT22;4504;48.810;9.172;2024-01-11T01:19:13;-3.00;99.90
8939;DHT22;4504;48.810;9.172;2024-01-11T01:21:40;-2.90;99.90
8939;DHT22;4504;48.810;9.172;2024-01-11T01:24:07;-2.90;99.90
8939;DHT22;4504;48.810;9.172;2024-01-11T01:26:35;-2.90;99.90
8939;DHT22;4504;48.810;9.172;2024-01-11T01:29:03;-3.00;99.90
8939;DHT22;4504;48.810;9.172;2024-01-11T01:34:03;-3.30;99.90
8939;DHT22;4504;48.810;9.172;2024-01-11T01:36:30;-3.20;99.90
8939;DHT22;4504;48.810;9.172;2024-01-11T01:38:57;-3.20;99.90
8939;DHT22;4504;48.810;9.172;2024-01-11T01:41:24;-3.20;99.90
8939;DHT22;4504;48.810;9.172;2024-01-11T01:43:51;-3.20;99.90
8939;DHT22;4504;48.810;9.172;2024-01-11T01:46:23;-3.20;99.90
8939;DHT22;4504;48.810;9.172;2024-01-11T01:48:50;-3.40;99.90
8939;DHT22;4504;48.810;9.172;2024-01-11T01:51:18;-3.30;99.90
8939;DHT22;4504;48.810;9.172;2024-01-11T01:53:45;-3.20;99.90
8939;DHT22;4504;48.810;9.172;2024-01-11T01:56:13;-3.40;99.90
8939;DHT22;4504;48.810;9.172;2024-01-11T01:58:40;-3.50;99.90
8939;DHT22;4504;48.810;9.172;2024-01-11T02:01:08;-3.50;99.90
8939;DHT22;4504;48.810;9.172;2024-01-11T02:03:37;-3.50;99.90
8939;DHT22;4504;48.810;9.172;2024-01-11T02:06:05;-3.40;99.90
8939;DHT22;4504;48.810;9.172;2024-01-11T02:08:32;-3.20;99.90
8939;DHT22;4504;48.810;9.172;2024-01-11T02:11:01;-3.20;99.90
8939;DHT22;4504;48.810;9.172;2024-01-11T02:13:28;-3.20;99.90
8939;DHT22;4504;48.810;9.172;2024-01-11T02:15:55;-3.30;99.90
8939;DHT22;4504;48.810;9.172;2024-01-11T02:18:22;-3.20;99.90
8939;DHT22;4504;48.810;9.172;2024-01-11T02:20:50;-3.10;99.90
8939;DHT22;4504;48.810;9.172;2024-01-11T02:23:19;-3.10;99.90
8939;DHT22;4504;48.810;9.172;2024-01-11T02:25:49;-3.10;99.90
8939;DHT22;4504;48.810;9.172;2024-01-11T02:28:17;-3.20;99.90
8939;DHT22;4504;48.810;9.172;2024-01-11T02:30:44;-3.30;99.90
8939;DHT22;4504;48.810;9.172;2024-01-11T02:33:11;-3.40;99.90
8939;DHT22;4504;48.810;9.172;2024-01-11T02:35:41;-3.30;99.90
8939;DHT22;4504;48.810;9.172;2024-01-11T02:38:08;-3.30;99.90
8939;DHT22;4504;48.810;9.172;2024-01-11T02:40:37;-3.10;99.90
8939;DHT22;4504;48.810;9.172;2024-01-11T02:43:10;-3.10;99.90
8939;DHT22;4504;48.810;9.172;2024-01-11T02:45:37;-3.20;99.90
8939;DHT22;4504;48.810;9.172;2024-01-11T02:48:04;-3.40;99.90
8939;DHT22;4504;48.810;9.172;2024-01-11T02:50:32;-3.50;99.90
8939;DHT22;4504;48.810;9.172;2024-01-11T02:52:59;-3.40;99.90
8939;DHT22;4504;48.810;9.172;2024-01-11T02:55:26;-3.30;99.90
8939;DHT22;4504;48.810;9.172;2024-01-11T02:57:53;-3.30;99.90
8939;DHT22;4504;48.810;9.172;2024-01-11T03:00:21;-3.30;99.90
8939;DHT22;4504;48.810;9.172;2024-01-11T03:02:48;-3.30;99.90
8939;DHT22;4504;48.810;9.172;2024-01-11T03:05:15;-3.40;99.90
8939;DHT22;4504;48.810;9.172;2024-01-11T03:07:42;-3.40;99.90
8939;DHT22;4504;48.810;9.172;2024-01-11T03:10:09;-3.50;99.90
8939;DHT22;4504;48.810;9.172;2024-01-11T03:12:36;-3.50;99.90
8939;DHT22;4504;48.810;9.172;2024-01-11T03:15:04;-3.40;99.90
8939;DHT22;4504;48.810;9.172;2024-01-11T03:17:33;-3.40;99.90
8939;DHT22;4504;48.810;9.172;2024-01-11T03:20:01;-3.40;99.90
8939;DHT22;4504;48.810;9.172;2024-01-11T03:22:29;-3.40;99.90
8939;DHT22;4504;48.810;9.172;2024-01-11T03:24:56;-3.40;99.90
8939;DHT22;4504;48.810;9.172;2024-01-11T03:27:23;-3.40;99.90
8939;DHT22;4504;48.810;9.172;2024-01-11T03:29:49;-3.40;99.90
8939;DHT22;4504;48.810;9.172;2024-01-11T03:32:16;-3.40;99.90
8939;DHT22;4504;48.810;9.172;2024-01-11T03:34:44;-3.40;99.90
8939;DHT22;4504;48.810;9.172;2024-01-11T03:37:11;-3.50;99.90
8939;DHT22;4504;48.810;9.172;2024-01-11T03:39:38;-3.50;99.90
8939;DHT22;4504;48.810;9.172;2024-01-11T03:42:05;-3.50;99.90
8939;DHT22;4504;48.810;9.172;2024-01-11T03:44:32;-3.50;99.90
8939;DHT22;4504;48.810;9.172;2024-01-11T03:46:59;-3.50;99.90
8939;DHT22;4504;48.810;9.172;2024-01-11T03:49:26;-3.60;99.90
8939;DHT22;4504;48.810;9.172;2024-01-11T03:51:54;-3.80;99.90
8939;DHT22;4504;48.810;9.172;2024-01-11T03:54:21;-4.00;99.90
8939;DHT22;4504;48.810;9.172;2024-01-11T03:56:48;-4.10;99.90
8939;DHT22;4504;48.810;9.172;2024-01-11T03:59:15;-4.00;99.90
8939;DHT22;4504;48.810;9.172;2024-01-11T04:01:42;-3.90;99.90
8939;DHT22;4504;48.810;9.172;2024-01-11T04:04:10;-3.90;99.90
8939;DHT22;4504;48.810;9.172;2024-01-11T04:06:38;-3.90;99.90
8939;DHT22;4504;48.810;9.172;2024-01-11T04:09:06;-3.90;99.90
8939;DHT22;4504;48.810;9.172;2024-01-11T04:11:33;-3.90;99.90
8939;DHT22;4504;48.810;9.172;2024-01-11T04:14:00;-3.80;99.90
8939;DHT22;4504;48.810;9.172;2024-01-11T04:16:27;-3.80;99.90
8939;DHT22;4504;48.810;9.172;2024-01-11T04:18:54;-3.70;99.90
8939;DHT22;4504;48.810;9.172;2024-01-11T04:21:22;-3.70;99.90
8939;DHT22;4504;48.810;9.172;2024-01-11T04:23:49;-3.80;99.90
8939;DHT22;4504;48.810;9.172;2024-01-11T04:26:17;-3.80;99.90
8939;DHT22;4504;48.810;9.172;2024-01-11T04:28:45;-3.90;99.90
8939;DHT22;4504;48.810;9.172;2024-01-11T04:31:12;-3.90;99.90
8939;DHT22;4504;48.810;9.172;2024-01-11T04:33:40;-4.00;99.90
8939;DHT22;4504;48.810;9.172;2024-01-11T04:36:07;-4.20;99.90
8939;DHT22;4504;48.810;9.172;2024-01-11T04:38:34;-4.30;99.90
8939;DHT22;4504;48.810;9.172;2024-01-11T04:41:01;-4.10;99.90
8939;DHT22;4504;48.810;9.172;2024-01-11T04:43:30;-4.10;99.90
8939;DHT22;4504;48.810;9.172;2024-01-11T04:45:57;-4.00;99.90
8939;DHT22;4504;48.810;9.172;2024-01-11T04:48:23;-4.00;99.90
8939;DHT22;4504;48.810;9.172;2024-01-11T04:50:50;-3.90;99.90
8939;DHT22;4504;48.810;9.172;2024-01-11T04:53:18;-3.80;99.90
8939;DHT22;4504;48.810;9.172;2024-01-11T04:55:45;-3.70;99.90
8939;DHT22;4504;48.810;9.172;2024-01-11T04:58:11;-3.70;99.90
8939;DHT22;4504;48.810;9.172;2024-01-11T05:00:40;-3.70;99.90
8939;DHT22;4504;48.810;9.172;2024-01-11T05:03:07;-3.70;99.90
8939;DHT22;4504;48.810;9.172;2024-01-11T05:05:35;-3.80;99.90
8939;DHT22;4504;48.810;9.172;2024-01-11T05:08:02;-3.80;99.90
8939;DHT22;4504;48.810;9.172;2024-01-11T05:10:29;-4.00;99.90
8939;DHT22;4504;48.810;9.172;2024-01-11T05:12:55;-3.90;99.90
8939;DHT22;4504;48.810;9.172;2024-01-11T05:15:22;-3.90;99.90
8939;DHT22;4504;48.810;9.172;2024-01-11T05:17:51;-3.90;99.90
8939;DHT22;4504;48.810;9.172;2024-01-11T05:20:18;-3.80;99.90
8939;DHT22;4504;48.810;9.172;2024-01-11T05:22:45;-3.90;99.90
8939;DHT22;4504;48.810;9.172;2024-01-11T05:25:12;-4.10;99.90
8939;DHT22;4504;48.810;9.172;2024-01-11T05:27:39;-4.10;99.90
8939;DHT22;4504;48.810;9.172;2024-01-11T05:30:07;-4.00;99.90
8939;DHT22;4504;48.810;9.172;2024-01-11T05:32:35;-4.30;99.90
8939;DHT22;4504;48.810;9.172;2024-01-11T05:35:03;-4.30;99.90
8939;DHT22;4504;48.810;9.172;2024-01-11T05:37:30;-4.20;99.90
8939;DHT22;4504;48.810;9.172;2024-01-11T05:39:57;-4.30;99.90
8939;DHT22;4504;48.810;9.172;2024-01-11T05:42:24;-4.30;99.90
8939;DHT22;4504;48.810;9.172;2024-01-11T05:44:52;-4.30;99.90
8939;DHT22;4504;48.810;9.172;2024-01-11T05:47:19;-4.30;99.90
8939;DHT22;4504;48.810;9.172;2024-01-11T05:49:46;-4.10;99.90
8939;DHT22;4504;48.810;9.172;2024-01-11T05:52:15;-4.00;99.90
8939;DHT22;4504;48.810;9.172;2024-01-11T05:54:42;-4.00;99.90
8939;DHT22;4504;48.810;9.172;2024-01-11T05:57:08;-4.10;99.90
8939;DHT22;4504;48.810;9.172;2024-01-11T05:59:35;-4.10;99.90
8939;DHT22;4504;48.810;9.172;2024-01-11T06:02:02;-4.00;99.90
8939;DHT22;4504;48.810;9.172;2024-01-11T06:04:32;-4.00;99.90
8939;DHT22;4504;48.810;9.172;2024-01-11T06:06:59;-4.10;99.90
8939;DHT22;4504;48.810;9.172;2024-01-11T06:09:27;-4.00;99.90
8939;DHT22;4504;48.810;9.172;2024-01-11T06:11:54;-4.00;99.90
8939;DHT22;4504;48.810;9.172;2024-01-11T06:14:21;-4.10;99.90
8939;DHT22;4504;48.810;9.172;2024-01-11T06:16:48;-4.20;99.90
8939;DHT22;4504;48.810;9.172;2024-01-11T06:19:15;-4.20;99.90
8939;DHT22;4504;48.810;9.172;2024-01-11T06:21:42;-4.10;99.90
8939;DHT22;4504;48.810;9.172;2024-01-11T06:24:09;-4.10;99.90
8939;DHT22;4504;48.810;9.172;2024-01-11T06:26:37;-4.10;99.90
8939;DHT22;4504;48.810;9.172;2024-01-11T06:29:04;-4.00;99.90
8939;DHT22;4504;48.810;9.172;2024-01-11T06:31:31;-4.00;99.90
8939;DHT22;4504;48.810;9.172;2024-01-11T06:33:58;-4.10;99.90
8939;DHT22;4504;48.810;9.172;2024-01-11T06:36:25;-4.00;99.90
8939;DHT22;4504;48.810;9.172;2024-01-11T06:38:52;-4.00;99.90
8939;DHT22;4504;48.810;9.172;2024-01-11T06:41:19;-4.00;99.90
8939;DHT22;4504;48.810;9.172;2024-01-11T06:43:47;-4.00;99.90
8939;DHT22;4504;48.810;9.172;2024-01-11T06:46:19;-4.00;99.90
8939;DHT22;4504;48.810;9.172;2024-01-11T06:48:46;-4.00;99.90
8939;DHT22;4504;48.810;9.172;2024-01-11T06:51:14;-4.10;99.90
8939;DHT22;4504;48.810;9.172;2024-01-11T06:53:41;-4.10;99.90
8939;DHT22;4504;48.810;9.172;2024-01-11T06:56:14;-4.10;99.90
8939;DHT22;4504;48.810;9.172;2024-01-11T06:58:41;-4.10;99.90
8939;DHT22;4504;48.810;9.172;2024-01-11T07:01:09;-4.10;99.90
8939;DHT22;4504;48.810;9.172;2024-01-11T07:03:36;-4.10;99.90
8939;DHT22;4504;48.810;9.172;2024-01-11T07:06:04;-4.10;99.90
8939;DHT22;4504;48.810;9.172;2024-01-11T07:08:31;-4.10;99.90
8939;DHT22;4504;48.810;9.172;2024-01-11T07:11:00;-4.20;99.90
8939;DHT22;4504;48.810;9.172;2024-01-11T07:13:27;-4.20;99.90
8939;DHT22;4504;48.810;9.172;2024-01-11T07:15:54;-4.30;99.90
8939;DHT22;4504;48.810;9.172;2024-01-11T07:18:25;-4.30;99.90
8939;DHT22;4504;48.810;9.172;2024-01-11T07:20:52;-4.20;99.90
8939;DHT22;4504;48.810;9.172;2024-01-11T07:23:19;-4.20;99.90
8939;DHT22;4504;48.810;9.172;2024-01-11T07:25:47;-4.20;99.90
8939;DHT22;4504;48.810;9.172;2024-01-11T07:28:14;-4.10;99.90
8939;DHT22;4504;48.810;9.172;2024-01-11T07:30:42;-4.10;99.90
8939;DHT22;4504;48.810;9.172;2024-01-11T07:33:10;-4.30;99.90
8939;DHT22;4504;48.810;9.172;2024-01-11T07:35:39;-4.50;99.90
8939;DHT22;4504;48.810;9.172;2024-01-11T07:38:05;-4.60;99.90
8939;DHT22;4504;48.810;9.172;2024-01-11T07:40:32;-4.60;99.90
8939;DHT22;4504;48.810;9.172;2024-01-11T07:42:59;-4.50;99.90
8939;DHT22;4504;48.810;9.172;2024-01-11T07:45:26;-4.60;99.90
8939;DHT22;4504;48.810;9.172;2024-01-11T07:47:53;-4.60;99.90
8939;DHT22;4504;48.810;9.172;2024-01-11T07:50:20;-4.50;99.90
8939;DHT22;4504;48.810;9.172;2024-01-11T07:52:49;-4.50;99.90
8939;DHT22;4504;48.810;9.172;2024-01-11T07:55:16;-4.60;99.90
8939;DHT22;4504;48.810;9.172;2024-01-11T07:57:44;-4.50;99.90
8939;DHT22;4504;48.810;9.172;2024-01-11T08:00:11;-4.40;99.90
8939;DHT22;4504;48.810;9.172;2024-01-11T08:02:41;-4.50;99.90
8939;DHT22;4504;48.810;9.172;2024-01-11T08:05:08;-4.50;99.90
8939;DHT22;4504;48.810;9.172;2024-01-11T08:07:35;-4.50;99.90
8939;DHT22;4504;48.810;9.172;2024-01-11T08:10:05;-4.60;99.90
8939;DHT22;4504;48.810;9.172;2024-01-11T08:12:32;-4.40;99.90
8939;DHT22;4504;48.810;9.172;2024-01-11T08:14:59;-4.30;99.90
8939;DHT22;4504;48.810;9.172;2024-01-11T08:17:26;-4.20;99.90
8939;DHT22;4504;48.810;9.172;2024-01-11T08:19:52;-4.20;99.90
8939;DHT22;4504;48.810;9.172;2024-01-11T08:22:21;-4.20;99.90
8939;DHT22;4504;48.810;9.172;2024-01-11T08:24:47;-4.20;99.90
8939;DHT22;4504;48.810;9.172;2024-01-11T08:27:16;-4.20;99.90
8939;DHT22;4504;48.810;9.172;2024-01-11T08:29:43;-4.20;99.90
8939;DHT22;4504;48.810;9.172;2024-01-11T08:32:12;-4.00;99.90
8939;DHT22;4504;48.810;9.172;2024-01-11T08:34:39;-4.00;99.90
8939;DHT22;4504;48.810;9.172;2024-01-11T08:37:06;-3.90;99.90
8939;DHT22;4504;48.810;9.172;2024-01-11T08:39:33;-3.90;99.90
8939;DHT22;4504;48.810;9.172;2024-01-11T08:42:00;-4.20;99.90
8939;DHT22;4504;48.810;9.172;2024-01-11T08:44:29;-4.10;99.90
8939;DHT22;4504;48.810;9.172;2024-01-11T08:46:56;-4.10;99.90
8939;DHT22;4504;48.810;9.172;2024-01-11T08:49:25;-4.00;99.90
8939;DHT22;4504;48.810;9.172;2024-01-11T08:51:51;-4.00;99.90
8939;DHT22;4504;48.810;9.172;2024-01-11T08:54:18;-3.90;99.90
8939;DHT22;4504;48.810;9.172;2024-01-11T08:56:46;-3.90;99.90
8939;DHT22;4504;48.810;9.172;2024-01-11T08:59:14;-3.90;99.90
8939;DHT22;4504;48.810;9.172;2024-01-11T09:01:42;-3.80;99.90
8939;DHT22;4504;48.810;9.172;2024-01-11T09:04:09;-3.80;99.90
8939;DHT22;4504;48.810;9.172;2024-01-11T09:06:36;-3.80;99.90
8939;DHT22;4504;48.810;9.172;2024-01-11T09:09:03;-3.70;99.90
8939;DHT22;4504;48.810;9.172;2024-01-11T09:11:35;-3.70;99.90
8939;DHT22;4504;48.810;9.172;2024-01-11T09:14:02;-3.60;99.90
8939;DHT22;4504;48.810;9.172;2024-01-11T09:16:29;-3.60;99.90
8939;DHT22;4504;48.810;9.172;2024-01-11T09:18:58;-3.50;99.90
8939;DHT22;4504;48.810;9.172;2024-01-11T09:21:25;-3.40;99.90
8939;DHT22;4504;48.810;9.172;2024-01-11T09:23:52;-3.50;99.90
8939;DHT22;4504;48.810;9.172;2024-01-11T09:26:19;-3.60;99.90
8939;DHT22;4504;48.810;9.172;2024-01-11T09:28:48;-3.50;99.90
8939;DHT22;4504;48.810;9.172;2024-01-11T09:31:15;-3.70;99.90
8939;DHT22;4504;48.810;9.172;2024-01-11T09:33:42;-3.60;99.90
8939;DHT22;4504;48.810;9.172;2024-01-11T09:36:13;-3.50;99.90
8939;DHT22;4504;48.810;9.172;2024-01-11T09:38:40;-3.30;99.90
8939;DHT22;4504;48.810;9.172;2024-01-11T09:41:09;-3.20;99.90
8939;DHT22;4504;48.810;9.172;2024-01-11T09:43:37;-3.20;99.90
8939;DHT22;4504;48.810;9.172;2024-01-11T09:46:05;-3.20;99.90
8939;DHT22;4504;48.810;9.172;2024-01-11T09:48:34;-3.00;99.90
8939;DHT22;4504;48.810;9.172;2024-01-11T09:51:01;-2.90;99.90
8939;DHT22;4504;48.810;9.172;2024-01-11T09:53:32;-2.80;99.90
8939;DHT22;4504;48.810;9.172;2024-01-11T09:55:59;-2.80;99.90
8939;DHT22;4504;48.810;9.172;2024-01-11T09:58:26;-2.80;99.90
8939;DHT22;4504;48.810;9.172;2024-01-11T10:00:55;-2.70;99.90
8939;DHT22;4504;48.810;9.172;2024-01-11T10:03:26;-2.70;99.90
8939;DHT22;4504;48.810;9.172;2024-01-11T10:05:57;-2.60;99.90
8939;DHT22;4504;48.810;9.172;2024-01-11T10:08:24;-2.60;99.90
8939;DHT22;4504;48.810;9.172;2024-01-11T10:10:53;-2.60;99.90
8939;DHT22;4504;48.810;9.172;2024-01-11T10:13:26;-2.60;99.90
8939;DHT22;4504;48.810;9.172;2024-01-11T10:16:05;-2.50;99.90
8939;DHT22;4504;48.810;9.172;2024-01-11T10:18:32;-2.50;99.90
8939;DHT22;4504;48.810;9.172;2024-01-11T10:20:59;-2.30;99.90
8939;DHT22;4504;48.810;9.172;2024-01-11T10:23:26;-2.40;99.90
8939;DHT22;4504;48.810;9.172;2024-01-11T10:25:56;-2.40;99.90
8939;DHT22;4504;48.810;9.172;2024-01-11T10:28:25;-2.30;99.90
8939;DHT22;4504;48.810;9.172;2024-01-11T10:30:52;-2.20;99.90
8939;DHT22;4504;48.810;9.172;2024-01-11T10:33:20;-2.30;99.90
8939;DHT22;4504;48.810;9.172;2024-01-11T10:35:47;-2.30;99.90
8939;DHT22;4504;48.810;9.172;2024-01-11T10:38:16;-2.40;99.90
8939;DHT22;4504;48.810;9.172;2024-01-11T10:40:44;-2.30;99.90
8939;DHT22;4504;48.810;9.172;2024-01-11T10:43:15;-2.20;99.90
8939;DHT22;4504;48.810;9.172;2024-01-11T10:45:44;-2.10;99.90
8939;DHT22;4504;48.810;9.172;2024-01-11T10:48:14;-2.00;99.90
8939;DHT22;4504;48.810;9.172;2024-01-11T10:50:42;-1.80;99.90
8939;DHT22;4504;48.810;9.172;2024-01-11T10:53:17;-1.60;99.90
8939;DHT22;4504;48.810;9.172;2024-01-11T10:55:48;-1.50;99.90
8939;DHT22;4504;48.810;9.172;2024-01-11T10:58:18;-1.10;99.90
8939;DHT22;4504;48.810;9.172;2024-01-11T11:00:46;-0.80;99.90
8939;DHT22;4504;48.810;9.172;2024-01-11T11:03:14;-0.60;99.90
8939;DHT22;4504;48.810;9.172;2024-01-11T11:05:43;-0.30;99.90
8939;DHT22;4504;48.810;9.172;2024-01-11T11:08:11;0.30;99.90
8939;DHT22;4504;48.810;9.172;2024-01-11T11:10:39;0.70;99.90
8939;DHT22;4504;48.810;9.172;2024-01-11T11:13:08;1.10;99.90
8939;DHT22;4504;48.810;9.172;2024-01-11T11:15:38;1.40;99.90
8939;DHT22;4504;48.810;9.172;2024-01-11T11:18:06;1.50;99.90
8939;DHT22;4504;48.810;9.172;2024-01-11T11:20:33;1.80;99.90
8939;DHT22;4504;48.810;9.172;2024-01-11T11:23:04;2.50;99.90
8939;DHT22;4504;48.810;9.172;2024-01-11T11:25:31;3.10;99.90
8939;DHT22;4504;48.810;9.172;2024-01-11T11:27:58;2.70;99.90
8939;DHT22;4504;48.810;9.172;2024-01-11T11:30:27;2.70;99.90
8939;DHT22;4504;48.810;9.172;2024-01-11T11:32:55;3.00;99.90
8939;DHT22;4504;48.810;9.172;2024-01-11T11:35:23;2.90;99.90
8939;DHT22;4504;48.810;9.172;2024-01-11T11:37:55;3.10;99.90
8939;DHT22;4504;48.810;9.172;2024-01-11T11:40:31;3.30;99.90
8939;DHT22;4504;48.810;9.172;2024-01-11T11:43:01;2.40;99.90
8939;DHT22;4504;48.810;9.172;2024-01-11T11:45:29;1.60;99.90
8939;DHT22;4504;48.810;9.172;2024-01-11T11:47:58;1.50;99.90
8939;DHT22;4504;48.810;9.172;2024-01-11T11:50:25;2.20;99.90
8939;DHT22;4504;48.810;9.172;2024-01-11T11:52:54;2.50;99.90
8939;DHT22;4504;48.810;9.172;2024-01-11T11:55:23;1.50;99.90
8939;DHT22;4504;48.810;9.172;2024-01-11T11:57:51;1.70;99.90
8939;DHT22;4504;48.810;9.172;2024-01-11T12:00:19;2.20;99.90
8939;DHT22;4504;48.810;9.172;2024-01-11T12:02:47;2.40;99.90
8939;DHT22;4504;48.810;9.172;2024-01-11T12:05:16;2.00;99.90
8939;DHT22;4504;48.810;9.172;2024-01-11T12:07:44;2.30;99.90
8939;DHT22;4504;48.810;9.172;2024-01-11T12:10:12;2.50;99.90
8939;DHT22;4504;48.810;9.172;2024-01-11T12:12:39;2.50;99.90
8939;DHT22;4504;48.810;9.172;2024-01-11T12:15:08;2.50;99.90
8939;DHT22;4504;48.810;9.172;2024-01-11T12:20:06;2.70;99.90
8939;DHT22;4504;48.810;9.172;2024-01-11T12:22:34;2.90;99.90
8939;DHT22;4504;48.810;9.172;2024-01-11T12:25:02;3.10;99.90
8939;DHT22;4504;48.810;9.172;2024-01-11T12:27:30;2.80;99.90
8939;DHT22;4504;48.810;9.172;2024-01-11T12:29:57;2.80;99.90
8939;DHT22;4504;48.810;9.172;2024-01-11T12:32:24;2.30;99.90
8939;DHT22;4504;48.810;9.172;2024-01-11T12:34:51;1.60;99.90
8939;DHT22;4504;48.810;9.172;2024-01-11T12:37:20;2.20;99.90
8939;DHT22;4504;48.810;9.172;2024-01-11T12:39:48;2.60;99.90
8939;DHT22;4504;48.810;9.172;2024-01-11T12:42:15;2.70;99.90
8939;DHT22;4504;48.810;9.172;2024-01-11T12:44:42;2.60;99.90
8939;DHT22;4504;48.810;9.172;2024-01-11T12:47:10;2.50;99.90
8939;DHT22;4504;48.810;9.172;2024-01-11T12:49:37;2.40;99.90
8939;DHT22;4504;48.810;9.172;2024-01-11T12:52:04;2.80;99.90
8939;DHT22;4504;48.810;9.172;2024-01-11T12:54:32;3.30;99.90
8939;DHT22;4504;48.810;9.172;2024-01-11T12:57:01;3.50;99.70
8939;DHT22;4504;48.810;9.172;2024-01-11T12:59:29;3.60;99.20
8939;DHT22;4504;48.810;9.172;2024-01-11T13:01:56;3.60;98.60
8939;DHT22;4504;48.810;9.172;2024-01-11T13:04:25;3.20;99.50
8939;DHT22;4504;48.810;9.172;2024-01-11T13:06:52;3.20;99.40
8939;DHT22;4504;48.810;9.172;2024-01-11T13:09:21;3.40;99.60
8939;DHT22;4504;48.810;9.172;2024-01-11T13:11:48;3.70;99.30
8939;DHT22;4504;48.810;9.172;2024-01-11T13:14:17;3.80;99.10
8939;DHT22;4504;48.810;9.172;2024-01-11T13:16:45;3.90;98.70
8939;DHT22;4504;48.810;9.172;2024-01-11T13:19:14;4.00;98.70
8939;DHT22;4504;48.810;9.172;2024-01-11T13:21:41;4.00;98.50
8939;DHT22;4504;48.810;9.172;2024-01-11T13:24:08;3.90;98.20
8939;DHT22;4504;48.810;9.172;2024-01-11T13:26:35;3.50;98.60
8939;DHT22;4504;48.810;9.172;2024-01-11T13:29:03;3.60;99.20
8939;DHT22;4504;48.810;9.172;2024-01-11T13:31:32;3.80;98.90
8939;DHT22;4504;48.810;9.172;2024-01-11T13:33:59;3.70;98.50
8939;DHT22;4504;48.810;9.172;2024-01-11T13:36:26;3.80;99.10
8939;DHT22;4504;48.810;9.172;2024-01-11T13:38:53;3.60;98.70
8939;DHT22;4504;48.810;9.172;2024-01-11T13:41:20;3.70;98.80
8939;DHT22;4504;48.810;9.172;2024-01-11T13:43:48;3.70;98.60
8939;DHT22;4504;48.810;9.172;2024-01-11T13:46:15;3.70;98.80
8939;DHT22;4504;48.810;9.172;2024-01-11T13:48:46;3.70;98.70
8939;DHT22;4504;48.810;9.172;2024-01-11T13:51:13;3.40;98.80
8939;DHT22;4504;48.810;9.172;2024-01-11T13:53:41;3.10;99.30
8939;DHT22;4504;48.810;9.172;2024-01-11T13:56:08;2.90;99.50
8939;DHT22;4504;48.810;9.172;2024-01-11T13:58:35;3.00;99.90
8939;DHT22;4504;48.810;9.172;2024-01-11T14:01:02;2.80;99.90
8939;DHT22;4504;48.810;9.172;2024-01-11T14:03:30;2.10;99.90
8939;DHT22;4504;48.810;9.172;2024-01-11T14:05:58;1.70;99.90
8939;DHT22;4504;48.810;9.172;2024-01-11T14:08:26;1.50;99.90
8939;DHT22;4504;48.810;9.172;2024-01-11T14:10:53;1.60;99.90
8939;DHT22;4504;48.810;9.172;2024-01-11T14:13:20;1.80;99.90
8939;DHT22;4504;48.810;9.172;2024-01-11T14:15:47;1.80;99.90
8939;DHT22;4504;48.810;9.172;2024-01-11T14:18:16;1.80;99.90
8939;DHT22;4504;48.810;9.172;2024-01-11T14:20:44;2.00;99.90
8939;DHT22;4504;48.810;9.172;2024-01-11T14:23:12;1.50;99.90
8939;DHT22;4504;48.810;9.172;2024-01-11T14:25:39;1.30;99.90
8939;DHT22;4504;48.810;9.172;2024-01-11T14:28:06;1.20;99.90
8939;DHT22;4504;48.810;9.172;2024-01-11T14:30:33;1.20;99.90
8939;DHT22;4504;48.810;9.172;2024-01-11T14:33:01;1.30;99.90
8939;DHT22;4504;48.810;9.172;2024-01-11T14:35:28;1.50;99.90
8939;DHT22;4504;48.810;9.172;2024-01-11T14:37:55;1.40;99.90
8939;DHT22;4504;48.810;9.172;2024-01-11T14:40:24;1.40;99.90
8939;DHT22;4504;48.810;9.172;2024-01-11T14:42:51;1.30;99.90
8939;DHT22;4504;48.810;9.172;2024-01-11T14:45:18;1.20;99.90
8939;DHT22;4504;48.810;9.172;2024-01-11T14:47:45;1.10;99.90
8939;DHT22;4504;48.810;9.172;2024-01-11T14:50:11;0.90;99.90
8939;DHT22;4504;48.810;9.172;2024-01-11T14:52:38;0.80;99.90
8939;DHT22;4504;48.810;9.172;2024-01-11T14:55:06;1.00;99.90
8939;DHT22;4504;48.810;9.172;2024-01-11T14:57:38;0.90;99.90
8939;DHT22;4504;48.810;9.172;2024-01-11T15:00:06;0.80;99.90
8939;DHT22;4504;48.810;9.172;2024-01-11T15:02:35;0.80;99.90
8939;DHT22;4504;48.810;9.172;2024-01-11T15:05:03;0.80;99.90
8939;DHT22;4504;48.810;9.172;2024-01-11T15:07:31;0.70;99.90
8939;DHT22;4504;48.810;9.172;2024-01-11T15:09:58;0.50;99.90
8939;DHT22;4504;48.810;9.172;2024-01-11T15:12:25;0.50;99.90
8939;DHT22;4504;48.810;9.172;2024-01-11T15:14:53;0.50;99.90
8939;DHT22;4504;48.810;9.172;2024-01-11T15:17:20;0.50;99.90
8939;DHT22;4504;48.810;9.172;2024-01-11T15:19:47;0.50;99.90
8939;DHT22;4504;48.810;9.172;2024-01-11T15:22:14;0.40;99.90
8939;DHT22;4504;48.810;9.172;2024-01-11T15:24:41;0.40;99.90
8939;DHT22;4504;48.810;9.172;2024-01-11T15:27:08;0.30;99.90
8939;DHT22;4504;48.810;9.172;2024-01-11T15:29:36;0.30;99.90
8939;DHT22;4504;48.810;9.172;2024-01-11T15:34:32;0.20;99.90
8939;DHT22;4504;48.810;9.172;2024-01-11T15:36:59;0.20;99.90
8939;DHT22;4504;48.810;9.172;2024-01-11T15:39:26;0.30;99.90
8939;DHT22;4504;48.810;9.172;2024-01-11T15:41:53;0.20;99.90
8939;DHT22;4504;48.810;9.172;2024-01-11T15:44:20;0.10;99.90
8939;DHT22;4504;48.810;9.172;2024-01-11T15:46:48;0.10;99.90
8939;DHT22;4504;48.810;9.172;2024-01-11T15:49:16;0.10;99.90
8939;DHT22;4504;48.810;9.172;2024-01-11T15:51:43;0.10;99.90
8939;DHT22;4504;48.810;9.172;2024-01-11T15:54:10;0.00;99.90
8939;DHT22;4504;48.810;9.172;2024-01-11T15:56:37;0.00;99.90
8939;DHT22;4504;48.810;9.172;2024-01-11T15:59:05;-0.10;99.90
8939;DHT22;4504;48.810;9.172;2024-01-11T16:01:32;-0.10;99.90
8939;DHT22;4504;48.810;9.172;2024-01-11T16:04:02;0.00;99.90
8939;DHT22;4504;48.810;9.172;2024-01-11T16:06:29;0.10;99.90
8939;DHT22;4504;48.810;9.172;2024-01-11T16:08:56;0.10;99.90
8939;DHT22;4504;48.810;9.172;2024-01-11T16:11:23;0.10;99.90
8939;DHT22;4504;48.810;9.172;2024-01-11T16:13:50;0.00;99.90
8939;DHT22;4504;48.810;9.172;2024-01-11T16:16:18;0.00;99.90